sensor_id;sensor_type;location;lat;lon;timestamp;pressure;altitude;pressure_sealevel;temperature;humidity
81802;BME280;71199;52.490;5.448;2023-12-22T00:01:14;100156.13;;;5.82;80.15
81802;BME280;71199;52.490;5.448;2023-12-22T00:03:41;100164.16;;;5.83;80.31
81802;BME280;71199;52.490;5.448;2023-12-22T00:06:06;100191.97;;;5.87;80.96
81802;BME280;71199;52.490;5.448;2023-12-22T00:08:32;100188.16;;;5.98;81.12
81802;BME280;71199;52.490;5.448;2023-12-22T00:10:57;100195.22;;;5.91;83.19
81802;BME280;71199;52.490;5.448;2023-12-22T00:13:23;100191.63;;;5.90;84.66
81802;BME280;71199;52.490;5.448;2023-12-22T00:15:48;100185.56;;;5.96;83.38
81802;BME280;71199;52.490;5.448;2023-12-22T00:18:13;100201.63;;;5.99;84.01
81802;BME280;71199;52.490;5.448;2023-12-22T00:20:39;100189.06;;;6.07;83.26
81802;BME280;71199;52.490;5.448;2023-12-22T00:23:04;100192.44;;;6.00;84.50
81802;BME280;71199;52.490;5.448;2023-12-22T00:25:29;100210.81;;;5.98;85.07
81802;BME280;71199;52.490;5.448;2023-12-22T00:27:55;100197.03;;;6.00;85.34
81802;BME280;71199;52.490;5.448;2023-12-22T00:30:20;100218.31;;;5.96;86.14
81802;BME280;71199;52.490;5.448;2023-12-22T00:32:45;100222.06;;;5.95;86.31
81802;BME280;71199;52.490;5.448;2023-12-22T00:35:11;100215.28;;;5.99;87.04
81802;BME280;71199;52.490;5.448;2023-12-22T00:37:36;100201.63;;;5.99;87.65
81802;BME280;71199;52.490;5.448;2023-12-22T00:40:02;100193.81;;;6.04;87.72
81802;BME280;71199;52.490;5.448;2023-12-22T00:42:30;100187.72;;;6.11;87.79
81802;BME280;71199;52.490;5.448;2023-12-22T00:44:55;100190.94;;;6.06;88.29
81802;BME280;71199;52.490;5.448;2023-12-22T00:47:21;100196.38;;;6.06;88.64
81802;BME280;71199;52.490;5.448;2023-12-22T00:49:46;100203.09;;;5.94;89.28
81802;BME280;71199;52.490;5.448;2023-12-22T00:52:12;100189.91;;;6.07;88.21
81802;BME280;71199;52.490;5.448;2023-12-22T00:54:37;100204.19;;;6.01;88.77
81802;BME280;71199;52.490;5.448;2023-12-22T00:57:03;100189.69;;;6.00;88.92
81802;BME280;71199;52.490;5.448;2023-12-22T00:59:29;100197.03;;;6.00;88.62
81802;BME280;71199;52.490;5.448;2023-12-22T01:01:55;100195.31;;;5.99;87.96
81802;BME280;71199;52.490;5.448;2023-12-22T01:04:20;100207.94;;;6.00;87.93
81802;BME280;71199;52.490;5.448;2023-12-22T01:06:45;100220.03;;;5.97;87.96
81802;BME280;71199;52.490;5.448;2023-12-22T01:09:11;100210.97;;;5.97;87.37
81802;BME280;71199;52.490;5.448;2023-12-22T01:11:37;100226.63;;;5.95;84.96
81802;BME280;71199;52.490;5.448;2023-12-22T01:14:02;100208.63;;;5.84;84.84
81802;BME280;71199;52.490;5.448;2023-12-22T01:16:27;100217.44;;;5.78;84.18
81802;BME280;71199;52.490;5.448;2023-12-22T01:18:53;100206.25;;;5.63;84.14
81802;BME280;71199;52.490;5.448;2023-12-22T01:21:19;100221.75;;;5.62;84.25
81802;BME280;71199;52.490;5.448;2023-12-22T01:23:44;100232.41;;;5.56;83.91
81802;BME280;71199;52.490;5.448;2023-12-22T01:26:09;100214.50;;;5.53;84.27
81802;BME280;71199;52.490;5.448;2023-12-22T01:28:35;100219.88;;;5.45;84.86
81802;BME280;71199;52.490;5.448;2023-12-22T01:31:01;100243.72;;;5.61;85.08
81802;BME280;71199;52.490;5.448;2023-12-22T01:33:26;100244.63;;;5.70;84.58
81802;BME280;71199;52.490;5.448;2023-12-22T01:35:52;100245.09;;;5.83;84.87
81802;BME280;71199;52.490;5.448;2023-12-22T01:38:17;100248.59;;;5.93;85.43
81802;BME280;71199;52.490;5.448;2023-12-22T01:40:43;100289.97;;;5.89;86.84
81802;BME280;71199;52.490;5.448;2023-12-22T01:43:08;100302.66;;;4.89;94.77
81802;BME280;71199;52.490;5.448;2023-12-22T01:45:34;100307.28;;;4.41;98.14
81802;BME280;71199;52.490;5.448;2023-12-22T01:47:59;100263.78;;;4.12;100.00
81802;BME280;71199;52.490;5.448;2023-12-22T01:50:25;100265.25;;;3.96;100.00
81802;BME280;71199;52.490;5.448;2023-12-22T01:52:50;100248.94;;;3.96;100.00
81802;BME280;71199;52.490;5.448;2023-12-22T01:55:16;100261.25;;;4.00;100.00
81802;BME280;71199;52.490;5.448;2023-12-22T01:57:43;100248.34;;;4.12;100.00
81802;BME280;71199;52.490;5.448;2023-12-22T02:00:11;100256.78;;;4.19;100.00
81802;BME280;71199;52.490;5.448;2023-12-22T02:02:36;100267.66;;;4.29;100.00
81802;BME280;71199;52.490;5.448;2023-12-22T02:05:04;100255.72;;;4.39;100.00
81802;BME280;71199;52.490;5.448;2023-12-22T02:07:30;100261.25;;;4.57;100.00
81802;BME280;71199;52.490;5.448;2023-12-22T02:09:56;100309.00;;;4.79;100.00
81802;BME280;71199;52.490;5.448;2023-12-22T02:12:21;100313.13;;;4.83;98.41
81802;BME280;71199;52.490;5.448;2023-12-22T02:14:47;100319.06;;;4.69;100.00
81802;BME280;71199;52.490;5.448;2023-12-22T02:17:20;100284.03;;;4.47;98.50
81802;BME280;71199;52.490;5.448;2023-12-22T02:19:48;100289.69;;;4.16;98.84
81802;BME280;71199;52.490;5.448;2023-12-22T02:22:14;100293.28;;;3.97;100.00
81802;BME280;71199;52.490;5.448;2023-12-22T02:24:40;100291.03;;;3.92;100.00
81802;BME280;71199;52.490;5.448;2023-12-22T02:32:30;100288.69;;;4.17;100.00
81802;BME280;71199;52.490;5.448;2023-12-22T02:34:58;100279.25;;;4.31;100.00
81802;BME280;71199;52.490;5.448;2023-12-22T02:37:25;100286.47;;;4.50;98.07
81802;BME280;71199;52.490;5.448;2023-12-22T02:39:52;100251.00;;;4.41;98.84
81802;BME280;71199;52.490;5.448;2023-12-22T02:42:18;100247.13;;;4.34;97.80
81802;BME280;71199;52.490;5.448;2023-12-22T02:44:45;100261.88;;;4.41;97.68
81802;BME280;71199;52.490;5.448;2023-12-22T02:47:11;100256.66;;;4.58;97.68
81802;BME280;71199;52.490;5.448;2023-12-22T02:49:36;100261.31;;;4.75;95.80
81802;BME280;71199;52.490;5.448;2023-12-22T02:52:01;100271.09;;;4.96;93.76
81802;BME280;71199;52.490;5.448;2023-12-22T02:54:27;100282.19;;;4.84;96.99
81802;BME280;71199;52.490;5.448;2023-12-22T02:56:55;100262.69;;;4.89;96.41
81802;BME280;71199;52.490;5.448;2023-12-22T02:59:20;100286.44;;;4.97;95.58
81802;BME280;71199;52.490;5.448;2023-12-22T03:01:46;100302.47;;;5.00;93.52
81802;BME280;71199;52.490;5.448;2023-12-22T03:04:11;100289.81;;;4.71;97.42
81802;BME280;71199;52.490;5.448;2023-12-22T03:06:36;100276.88;;;4.55;97.36
81802;BME280;71199;52.490;5.448;2023-12-22T03:09:02;100293.34;;;4.54;96.73
81802;BME280;71199;52.490;5.448;2023-12-22T03:11:27;100272.56;;;4.53;97.00
81802;BME280;71199;52.490;5.448;2023-12-22T03:13:53;100267.44;;;4.50;96.95
81802;BME280;71199;52.490;5.448;2023-12-22T03:16:18;100262.28;;;4.47;97.56
81802;BME280;71199;52.490;5.448;2023-12-22T03:18:43;100283.50;;;4.43;98.77
81802;BME280;71199;52.490;5.448;2023-12-22T03:21:16;100268.28;;;4.50;98.88
81802;BME280;71199;52.490;5.448;2023-12-22T03:23:42;100269.72;;;4.44;100.00
81802;BME280;71199;52.490;5.448;2023-12-22T03:26:07;100269.47;;;4.38;100.00
81802;BME280;71199;52.490;5.448;2023-12-22T03:28:32;100270.38;;;4.29;100.00
81802;BME280;71199;52.490;5.448;2023-12-22T03:30:59;100273.81;;;4.21;100.00
81802;BME280;71199;52.490;5.448;2023-12-22T03:33:24;100280.66;;;4.25;100.00
81802;BME280;71199;52.490;5.448;2023-12-22T03:35:50;100266.03;;;4.36;100.00
81802;BME280;71199;52.490;5.448;2023-12-22T03:38:15;100259.03;;;4.33;100.00
81802;BME280;71199;52.490;5.448;2023-12-22T03:40:40;100265.19;;;4.35;100.00
81802;BME280;71199;52.490;5.448;2023-12-22T03:43:06;100258.13;;;4.42;100.00
81802;BME280;71199;52.490;5.448;2023-12-22T03:45:31;100288.22;;;4.41;100.00
81802;BME280;71199;52.490;5.448;2023-12-22T03:47:56;100275.47;;;4.41;100.00
81802;BME280;71199;52.490;5.448;2023-12-22T03:50:22;100293.50;;;4.42;100.00
81802;BME280;71199;52.490;5.448;2023-12-22T03:52:47;100276.19;;;4.43;100.00
81802;BME280;71199;52.490;5.448;2023-12-22T03:55:12;100273.59;;;4.42;100.00
81802;BME280;71199;52.490;5.448;2023-12-22T03:57:38;100269.56;;;4.56;100.00
81802;BME280;71199;52.490;5.448;2023-12-22T04:00:03;100255.00;;;4.47;100.00
81802;BME280;71199;52.490;5.448;2023-12-22T04:02:29;100267.13;;;4.53;100.00
81802;BME280;71199;52.490;5.448;2023-12-22T04:04:54;100284.47;;;4.52;100.00
81802;BME280;71199;52.490;5.448;2023-12-22T04:07:20;100282.31;;;4.55;100.00
81802;BME280;71199;52.490;5.448;2023-12-22T04:09:45;100281.56;;;4.63;100.00
81802;BME280;71199;52.490;5.448;2023-12-22T04:12:11;100280.63;;;4.82;99.41
81802;BME280;71199;52.490;5.448;2023-12-22T04:14:36;100283.81;;;5.05;93.63
81802;BME280;71199;52.490;5.448;2023-12-22T04:17:01;100278.31;;;5.15;92.18
81802;BME280;71199;52.490;5.448;2023-12-22T04:19:27;100288.84;;;5.28;90.89
81802;BME280;71199;52.490;5.448;2023-12-22T04:21:52;100294.13;;;5.29;89.73
81802;BME280;71199;52.490;5.448;2023-12-22T04:24:17;100293.19;;;5.20;90.15
81802;BME280;71199;52.490;5.448;2023-12-22T04:26:43;100287.97;;;5.27;90.40
81802;BME280;71199;52.490;5.448;2023-12-22T04:29:08;100299.75;;;5.28;91.89
81802;BME280;71199;52.490;5.448;2023-12-22T04:31:34;100299.03;;;5.25;93.38
81802;BME280;71199;52.490;5.448;2023-12-22T04:33:59;100287.91;;;5.37;92.55
81802;BME280;71199;52.490;5.448;2023-12-22T04:36:25;100284.72;;;5.41;92.48
81802;BME280;71199;52.490;5.448;2023-12-22T04:38:50;100289.66;;;5.38;93.85
81802;BME280;71199;52.490;5.448;2023-12-22T04:41:15;100299.66;;;5.37;93.76
81802;BME280;71199;52.490;5.448;2023-12-22T04:43:41;100284.47;;;5.35;94.46
81802;BME280;71199;52.490;5.448;2023-12-22T04:46:06;100283.88;;;5.41;93.70
81802;BME280;71199;52.490;5.448;2023-12-22T04:48:31;100288.16;;;5.43;93.78
81802;BME280;71199;52.490;5.448;2023-12-22T04:50:58;100283.88;;;5.41;93.98
81802;BME280;71199;52.490;5.448;2023-12-22T04:53:23;100298.53;;;5.40;93.78
81802;BME280;71199;52.490;5.448;2023-12-22T04:55:49;100291.34;;;5.39;94.90
81802;BME280;71199;52.490;5.448;2023-12-22T04:58:14;100306.00;;;5.38;95.17
81802;BME280;71199;52.490;5.448;2023-12-22T05:00:40;100301.94;;;5.42;94.86
81802;BME280;71199;52.490;5.448;2023-12-22T05:03:05;100303.66;;;5.43;95.56
81802;BME280;71199;52.490;5.448;2023-12-22T05:05:30;100299.31;;;5.50;94.86
81802;BME280;71199;52.490;5.448;2023-12-22T05:07:56;100292.84;;;5.51;95.06
81802;BME280;71199;52.490;5.448;2023-12-22T05:10:22;100288.94;;;5.54;95.09
81802;BME280;71199;52.490;5.448;2023-12-22T05:12:47;100280.63;;;5.55;95.75
81802;BME280;71199;52.490;5.448;2023-12-22T05:15:13;100299.41;;;5.58;95.86
81802;BME280;71199;52.490;5.448;2023-12-22T05:17:38;100296.44;;;5.70;96.03
81802;BME280;71199;52.490;5.448;2023-12-22T05:20:06;100294.97;;;5.75;95.51
81802;BME280;71199;52.490;5.448;2023-12-22T05:22:31;100297.63;;;5.85;95.75
81802;BME280;71199;52.490;5.448;2023-12-22T05:24:57;100290.34;;;5.76;97.35
81802;BME280;71199;52.490;5.448;2023-12-22T05:27:25;100295.34;;;5.80;96.83
81802;BME280;71199;52.490;5.448;2023-12-22T05:29:50;100283.50;;;5.72;97.97
81802;BME280;71199;52.490;5.448;2023-12-22T05:32:15;100283.66;;;5.70;99.18
81802;BME280;71199;52.490;5.448;2023-12-22T05:34:41;100290.75;;;5.63;99.82
81802;BME280;71199;52.490;5.448;2023-12-22T05:37:06;100280.94;;;5.52;100.00
81802;BME280;71199;52.490;5.448;2023-12-22T05:39:31;100275.94;;;5.48;100.00
81802;BME280;71199;52.490;5.448;2023-12-22T05:41:57;100269.63;;;5.47;100.00
81802;BME280;71199;52.490;5.448;2023-12-22T05:44:22;100290.44;;;5.48;100.00
81802;BME280;71199;52.490;5.448;2023-12-22T05:46:49;100292.69;;;5.53;100.00
81802;BME280;71199;52.490;5.448;2023-12-22T05:49:15;100304.16;;;5.56;100.00
81802;BME280;71199;52.490;5.448;2023-12-22T05:51:41;100318.16;;;5.61;100.00
81802;BME280;71199;52.490;5.448;2023-12-22T05:54:09;100313.88;;;5.59;100.00
81802;BME280;71199;52.490;5.448;2023-12-22T05:56:38;100310.28;;;5.40;100.00
81802;BME280;71199;52.490;5.448;2023-12-22T05:59:03;100306.19;;;5.27;100.00
81802;BME280;71199;52.490;5.448;2023-12-22T06:01:29;100308.44;;;5.13;99.94
81802;BME280;71199;52.490;5.448;2023-12-22T06:03:54;100285.16;;;4.91;100.00
81802;BME280;71199;52.490;5.448;2023-12-22T06:06:20;100297.22;;;4.89;98.64
81802;BME280;71199;52.490;5.448;2023-12-22T06:08:45;100294.75;;;4.95;96.57
81802;BME280;71199;52.490;5.448;2023-12-22T06:11:11;100288.84;;;5.28;94.95
81802;BME280;71199;52.490;5.448;2023-12-22T06:13:36;100283.16;;;5.39;97.00
81802;BME280;71199;52.490;5.448;2023-12-22T06:16:02;100291.34;;;5.39;99.21
81802;BME280;71199;52.490;5.448;2023-12-22T06:18:27;100292.75;;;5.43;99.90
81802;BME280;71199;52.490;5.448;2023-12-22T06:20:52;100313.75;;;5.33;99.90
81802;BME280;71199;52.490;5.448;2023-12-22T06:23:18;100320.66;;;5.27;100.00
81802;BME280;71199;52.490;5.448;2023-12-22T06:25:43;100317.69;;;5.20;100.00
81802;BME280;71199;52.490;5.448;2023-12-22T06:28:11;100305.56;;;5.15;100.00
81802;BME280;71199;52.490;5.448;2023-12-22T06:30:37;100308.00;;;5.08;100.00
81802;BME280;71199;52.490;5.448;2023-12-22T06:33:03;100294.56;;;5.07;100.00
81802;BME280;71199;52.490;5.448;2023-12-22T06:35:28;100289.25;;;5.05;100.00
81802;BME280;71199;52.490;5.448;2023-12-22T06:37:53;100304.56;;;5.06;100.00
81802;BME280;71199;52.490;5.448;2023-12-22T06:40:20;100308.59;;;5.02;100.00
81802;BME280;71199;52.490;5.448;2023-12-22T06:42:46;100308.78;;;5.00;100.00
81802;BME280;71199;52.490;5.448;2023-12-22T06:45:12;100309.91;;;4.98;100.00
81802;BME280;71199;52.490;5.448;2023-12-22T06:47:37;100307.63;;;5.03;100.00
81802;BME280;71199;52.490;5.448;2023-12-22T06:50:03;100308.22;;;4.97;100.00
81802;BME280;71199;52.490;5.448;2023-12-22T06:52:29;100310.94;;;4.97;100.00
81802;BME280;71199;52.490;5.448;2023-12-22T06:54:55;100303.66;;;4.88;100.00
81802;BME280;71199;52.490;5.448;2023-12-22T06:57:21;100292.97;;;5.04;100.00
81802;BME280;71199;52.490;5.448;2023-12-22T06:59:46;100297.25;;;5.34;100.00
81802;BME280;71199;52.490;5.448;2023-12-22T07:02:14;100292.75;;;5.43;100.00
81802;BME280;71199;52.490;5.448;2023-12-22T07:07:31;100284.81;;;5.68;100.00
81802;BME280;71199;52.490;5.448;2023-12-22T07:09:57;100299.38;;;5.76;100.00
81802;BME280;71199;52.490;5.448;2023-12-22T07:12:22;100299.72;;;5.91;100.00
81802;BME280;71199;52.490;5.448;2023-12-22T07:14:47;100296.81;;;5.93;100.00
81802;BME280;71199;52.490;5.448;2023-12-22T07:17:12;100302.06;;;6.04;100.00
81802;BME280;71199;52.490;5.448;2023-12-22T07:19:38;100297.16;;;6.08;100.00
81802;BME280;71199;52.490;5.448;2023-12-22T07:22:03;100290.06;;;6.15;100.00
81802;BME280;71199;52.490;5.448;2023-12-22T07:24:29;100296.34;;;6.15;100.00
81802;BME280;71199;52.490;5.448;2023-12-22T07:26:55;100279.84;;;6.17;100.00
81802;BME280;71199;52.490;5.448;2023-12-22T07:29:20;100277.81;;;6.19;100.00
81802;BME280;71199;52.490;5.448;2023-12-22T07:31:45;100286.38;;;6.24;100.00
81802;BME280;71199;52.490;5.448;2023-12-22T07:34:11;100279.84;;;6.17;100.00
81802;BME280;71199;52.490;5.448;2023-12-22T07:36:36;100276.63;;;6.21;100.00
81802;BME280;71199;52.490;5.448;2023-12-22T07:39:01;100277.81;;;6.19;100.00
81802;BME280;71199;52.490;5.448;2023-12-22T07:41:27;100279.97;;;6.15;100.00
81802;BME280;71199;52.490;5.448;2023-12-22T07:43:52;100280.69;;;6.17;100.00
81802;BME280;71199;52.490;5.448;2023-12-22T07:46:19;100282.78;;;6.23;100.00
81802;BME280;71199;52.490;5.448;2023-12-22T07:48:44;100292.53;;;6.26;100.00
81802;BME280;71199;52.490;5.448;2023-12-22T07:51:10;100288.63;;;6.29;100.00
81802;BME280;71199;52.490;5.448;2023-12-22T07:53:36;100297.50;;;6.31;100.00
81802;BME280;71199;52.490;5.448;2023-12-22T07:56:01;100304.91;;;6.38;100.00
81802;BME280;71199;52.490;5.448;2023-12-22T07:58:27;100296.31;;;6.33;100.00
81802;BME280;71199;52.490;5.448;2023-12-22T08:00:52;100306.94;;;6.36;100.00
81802;BME280;71199;52.490;5.448;2023-12-22T08:03:18;100299.66;;;6.45;100.00
81802;BME280;71199;52.490;5.448;2023-12-22T08:05:44;100279.66;;;6.36;100.00
81802;BME280;71199;52.490;5.448;2023-12-22T08:08:10;100286.44;;;6.32;100.00
81802;BME280;71199;52.490;5.448;2023-12-22T08:10:35;100296.03;;;6.36;100.00
81802;BME280;71199;52.490;5.448;2023-12-22T08:13:00;100286.44;;;6.32;100.00
81802;BME280;71199;52.490;5.448;2023-12-22T08:15:26;100274.84;;;6.30;100.00
81802;BME280;71199;52.490;5.448;2023-12-22T08:17:51;100264.84;;;6.21;100.00
81802;BME280;71199;52.490;5.448;2023-12-22T08:20:18;100255.69;;;6.22;100.00
81802;BME280;71199;52.490;5.448;2023-12-22T08:22:47;100273.75;;;6.23;100.00
81802;BME280;71199;52.490;5.448;2023-12-22T08:25:13;100265.63;;;6.31;100.00
81802;BME280;71199;52.490;5.448;2023-12-22T08:27:39;100254.06;;;6.37;100.00
81802;BME280;71199;52.490;5.448;2023-12-22T08:30:05;100257.19;;;6.42;100.00
81802;BME280;71199;52.490;5.448;2023-12-22T08:32:30;100242.50;;;6.43;100.00
81802;BME280;71199;52.490;5.448;2023-12-22T08:34:55;100242.50;;;6.43;100.00
81802;BME280;71199;52.490;5.448;2023-12-22T08:37:21;100236.50;;;6.40;100.00
81802;BME280;71199;52.490;5.448;2023-12-22T08:39:46;100244.19;;;6.36;100.00
81802;BME280;71199;52.490;5.448;2023-12-22T08:42:11;100241.59;;;6.35;100.00
81802;BME280;71199;52.490;5.448;2023-12-22T08:44:37;100243.09;;;6.29;100.00
81802;BME280;71199;52.490;5.448;2023-12-22T08:47:03;100232.88;;;6.31;100.00
81802;BME280;71199;52.490;5.448;2023-12-22T08:49:28;100210.03;;;6.32;100.00
81802;BME280;71199;52.490;5.448;2023-12-22T08:51:53;100237.69;;;6.37;100.00
81802;BME280;71199;52.490;5.448;2023-12-22T08:54:19;100237.78;;;6.54;100.00
81802;BME280;71199;52.490;5.448;2023-12-22T08:56:44;100245.47;;;6.58;100.00
81802;BME280;71199;52.490;5.448;2023-12-22T08:59:09;100243.59;;;6.59;100.00
81802;BME280;71199;52.490;5.448;2023-12-22T09:01:35;100245.72;;;6.73;100.00
81802;BME280;71199;52.490;5.448;2023-12-22T09:04:00;100243.03;;;6.81;100.00
81802;BME280;71199;52.490;5.448;2023-12-22T09:06:27;100257.06;;;6.86;100.00
81802;BME280;71199;52.490;5.448;2023-12-22T09:08:52;100249.41;;;6.90;100.00
81802;BME280;71199;52.490;5.448;2023-12-22T09:11:19;100258.09;;;6.94;100.00
81802;BME280;71199;52.490;5.448;2023-12-22T09:13:45;100257.09;;;6.95;100.00
81802;BME280;71199;52.490;5.448;2023-12-22T09:16:11;100245.50;;;7.01;100.00
81802;BME280;71199;52.490;5.448;2023-12-22T09:18:36;100259.50;;;7.06;100.00
81802;BME280;71199;52.490;5.448;2023-12-22T09:21:02;100256.78;;;7.06;100.00
81802;BME280;71199;52.490;5.448;2023-12-22T09:23:32;100246.19;;;7.03;100.00
81802;BME280;71199;52.490;5.448;2023-12-22T09:25:57;100247.56;;;7.07;100.00
81802;BME280;71199;52.490;5.448;2023-12-22T09:28:23;100247.41;;;7.09;100.00
81802;BME280;71199;52.490;5.448;2023-12-22T09:30:49;100256.50;;;7.17;100.00
81802;BME280;71199;52.490;5.448;2023-12-22T09:33:14;100256.34;;;7.19;100.00
81802;BME280;71199;52.490;5.448;2023-12-22T09:35:40;100255.81;;;7.23;100.00
81802;BME280;71199;52.490;5.448;2023-12-22T09:38:07;100251.75;;;7.28;100.00
81802;BME280;71199;52.490;5.448;2023-12-22T09:40:36;100242.50;;;7.29;100.00
81802;BME280;71199;52.490;5.448;2023-12-22T09:43:02;100261.13;;;7.25;100.00
81802;BME280;71199;52.490;5.448;2023-12-22T09:45:30;100250.69;;;7.20;100.00
81802;BME280;71199;52.490;5.448;2023-12-22T09:47:56;100245.72;;;7.16;100.00
81802;BME280;71199;52.490;5.448;2023-12-22T09:50:24;100254.75;;;7.16;100.00
81802;BME280;71199;52.490;5.448;2023-12-22T09:52:50;100255.28;;;7.20;100.00
81802;BME280;71199;52.490;5.448;2023-12-22T09:55:15;100254.75;;;7.16;100.00
81802;BME280;71199;52.490;5.448;2023-12-22T09:57:42;100253.09;;;7.23;100.00
81802;BME280;71199;52.490;5.448;2023-12-22T10:00:09;100249.16;;;7.26;100.00
81802;BME280;71199;52.490;5.448;2023-12-22T10:02:35;100260.94;;;7.26;100.00
81802;BME280;71199;52.490;5.448;2023-12-22T10:05:02;100263.91;;;7.33;100.00
81802;BME280;71199;52.490;5.448;2023-12-22T10:07:28;100274.13;;;7.31;100.00
81802;BME280;71199;52.490;5.448;2023-12-22T10:09:55;100261.16;;;7.33;100.00
81802;BME280;71199;52.490;5.448;2023-12-22T10:12:22;100265.06;;;7.31;100.00
81802;BME280;71199;52.490;5.448;2023-12-22T10:14:48;100267.78;;;7.31;100.00
81802;BME280;71199;52.490;5.448;2023-12-22T10:17:14;100271.38;;;7.23;100.00
81802;BME280;71199;52.490;5.448;2023-12-22T10:19:40;100273.22;;;7.22;100.00
81802;BME280;71199;52.490;5.448;2023-12-22T10:22:05;100276.66;;;7.24;100.00
81802;BME280;71199;52.490;5.448;2023-12-22T10:24:43;100291.69;;;7.29;100.00
81802;BME280;71199;52.490;5.448;2023-12-22T10:27:09;100283.19;;;7.32;100.00
81802;BME280;71199;52.490;5.448;2023-12-22T10:29:35;100283.88;;;7.34;100.00
81802;BME280;71199;52.490;5.448;2023-12-22T10:32:06;100276.19;;;7.37;100.00
81802;BME280;71199;52.490;5.448;2023-12-22T10:34:32;100277.38;;;7.43;100.00
81802;BME280;71199;52.490;5.448;2023-12-22T10:37:01;100273.66;;;7.44;100.00
81802;BME280;71199;52.490;5.448;2023-12-22T10:39:27;100274.31;;;7.38;100.00
81802;BME280;71199;52.490;5.448;2023-12-22T10:41:53;100258.25;;;7.43;100.00
81802;BME280;71199;52.490;5.448;2023-12-22T10:44:19;100269.56;;;7.48;100.00
81802;BME280;71199;52.490;5.448;2023-12-22T10:46:46;100275.38;;;7.53;100.00
81802;BME280;71199;52.490;5.448;2023-12-22T10:49:12;100264.78;;;7.58;100.00
81802;BME280;71199;52.490;5.448;2023-12-22T10:51:37;100251.47;;;7.63;100.00
81802;BME280;71199;52.490;5.448;2023-12-22T10:54:04;100253.50;;;7.61;100.00
81802;BME280;71199;52.490;5.448;2023-12-22T10:56:31;100255.91;;;7.64;100.00
81802;BME280;71199;52.490;5.448;2023-12-22T10:58:56;100263.41;;;7.54;100.00
81802;BME280;71199;52.490;5.448;2023-12-22T11:01:28;100257.59;;;7.57;100.00
81802;BME280;71199;52.490;5.448;2023-12-22T11:03:58;100253.16;;;7.56;100.00
81802;BME280;71199;52.490;5.448;2023-12-22T11:06:26;100248.38;;;7.58;100.00
81802;BME280;71199;52.490;5.448;2023-12-22T11:08:52;100250.09;;;7.59;100.00
81802;BME280;71199;52.490;5.448;2023-12-22T11:11:31;100249.25;;;7.59;100.00
81802;BME280;71199;52.490;5.448;2023-12-22T11:13:59;100249.41;;;7.65;100.00
81802;BME280;71199;52.490;5.448;2023-12-22T11:16:27;100252.50;;;7.71;100.00
81802;BME280;71199;52.490;5.448;2023-12-22T11:18:53;100236.09;;;7.79;100.00
81802;BME280;71199;52.490;5.448;2023-12-22T11:21:22;100234.91;;;7.81;100.00
81802;BME280;71199;52.490;5.448;2023-12-22T11:23:49;100229.28;;;7.83;100.00
81802;BME280;71199;52.490;5.448;2023-12-22T11:26:16;100222.06;;;7.82;100.00
81802;BME280;71199;52.490;5.448;2023-12-22T11:28:42;100224.81;;;7.82;100.00
81802;BME280;71199;52.490;5.448;2023-12-22T11:31:10;100213.53;;;7.77;100.00
81802;BME280;71199;52.490;5.448;2023-12-22T11:33:36;100216.59;;;7.82;100.00
81802;BME280;71199;52.490;5.448;2023-12-22T11:36:03;100217.97;;;7.78;100.00
81802;BME280;71199;52.490;5.448;2023-12-22T11:38:30;100216.59;;;7.82;100.00
81802;BME280;71199;52.490;5.448;2023-12-22T11:40:57;100211.28;;;7.88;100.00
81802;BME280;71199;52.490;5.448;2023-12-22T11:43:23;100209.25;;;7.91;100.00
81802;BME280;71199;52.490;5.448;2023-12-22T11:45:49;100197.59;;;7.97;100.00
81802;BME280;71199;52.490;5.448;2023-12-22T11:48:15;100196.75;;;7.96;100.00
81802;BME280;71199;52.490;5.448;2023-12-22T11:50:41;100192.81;;;7.99;100.00
81802;BME280;71199;52.490;5.448;2023-12-22T11:53:21;100199.66;;;7.95;100.00
81802;BME280;71199;52.490;5.448;2023-12-22T11:56:03;100189.91;;;8.00;100.00
81802;BME280;71199;52.490;5.448;2023-12-22T11:58:40;100188.38;;;7.98;100.00
81802;BME280;71199;52.490;5.448;2023-12-22T12:01:13;100194.38;;;8.01;99.83
81802;BME280;71199;52.490;5.448;2023-12-22T12:03:48;100181.19;;;8.05;99.15
81802;BME280;71199;52.490;5.448;2023-12-22T12:08:39;100173.84;;;8.14;99.29
81802;BME280;71199;52.490;5.448;2023-12-22T12:11:04;100173.31;;;8.18;98.98
81802;BME280;71199;52.490;5.448;2023-12-22T12:13:31;100165.63;;;8.14;99.06
81802;BME280;71199;52.490;5.448;2023-12-22T12:16:00;100164.41;;;8.16;98.62
81802;BME280;71199;52.490;5.448;2023-12-22T12:18:30;100162.53;;;8.17;99.37
81802;BME280;71199;52.490;5.448;2023-12-22T12:20:57;100157.59;;;8.12;99.47
81802;BME280;71199;52.490;5.448;2023-12-22T12:23:26;100167.69;;;8.12;99.64
81802;BME280;71199;52.490;5.448;2023-12-22T12:25:53;100156.06;;;8.10;100.00
81802;BME280;71199;52.490;5.448;2023-12-22T12:28:25;100153.13;;;8.11;100.00
81802;BME280;71199;52.490;5.448;2023-12-22T12:31:03;100167.16;;;8.08;99.93
81802;BME280;71199;52.490;5.448;2023-12-22T12:33:29;100156.06;;;8.10;100.00
81802;BME280;71199;52.490;5.448;2023-12-22T12:35:57;100158.44;;;8.13;100.00
81802;BME280;71199;52.490;5.448;2023-12-22T12:38:45;100158.09;;;8.16;100.00
81802;BME280;71199;52.490;5.448;2023-12-22T12:41:15;100165.63;;;8.14;100.00
81802;BME280;71199;52.490;5.448;2023-12-22T12:43:42;100152.78;;;8.14;100.00
81802;BME280;71199;52.490;5.448;2023-12-22T12:46:10;100162.22;;;8.12;100.00
81802;BME280;71199;52.490;5.448;2023-12-22T12:48:36;100150.91;;;8.15;100.00
81802;BME280;71199;52.490;5.448;2023-12-22T12:51:04;100160.81;;;8.24;99.41
81802;BME280;71199;52.490;5.448;2023-12-22T12:53:33;100153.31;;;8.18;100.00
81802;BME280;71199;52.490;5.448;2023-12-22T12:55:59;100154.47;;;8.23;100.00
81802;BME280;71199;52.490;5.448;2023-12-22T12:58:32;100158.25;;;8.22;99.79
81802;BME280;71199;52.490;5.448;2023-12-22T13:01:24;100163.88;;;8.29;99.40